CCNI Arauco — D5GZ3 — position and weather

sailwx.info

Track history (hours):
 
Tides and Currents Weather Stations Pressure Air Temp Water Temp Dewpoint Dewpoint Depression Visibility Wind Speed Wind Dir Waves Ship Positions

CCNI Arauco

Last reported at 2017-Dec-07 03:11 UTC. Time now 2017-Dec-17 11:51 UTC.
Position N 36°28' E 014°45'.
Warning: this ship's position is 10 days out of date.

Length 300 m; draft 12.5 m.

Type: Ship (hazmat cat A). MMSI: 636016609.

Date/timePositionNaut miles runAvg speedWind from/ knotsBaromVisibWave heightAir tempDewpointWater temp
2017-Dec-07 03:11N 36°28' E 014°45'315.5
2017-Dec-07 03:00N 36°29' E 014°42'815.5
2017-Dec-07 02:30N 36°31' E 014°32'815.4
2017-Dec-07 02:00N 36°33' E 014°23'915.3
2017-Dec-07 01:27N 36°35' E 014°13'715.1
2017-Dec-07 01:00N 36°38' E 014°05'815.1
2017-Dec-07 00:29N 36°40' E 013°56'  
2017-Dec-04 10:30N 35°59' W 005°14'815.1
2017-Dec-04 10:00N 35°58' W 005°23'269 7.4
2017-Dec-02 21:30N 38°28' W 010°03'1020.6
2017-Dec-02 21:00N 38°39' W 010°05'1320.8
2017-Dec-02 20:23N 38°51' W 010°06'820.8
2017-Dec-02 20:00N 38°59' W 010°06'1121.1
2017-Dec-02 19:30N 39°10' W 010°05'  
2017-Nov-30 11:29N 49°39' W 003°51'1113.9
2017-Nov-30 10:42N 49°44' W 003°36'814.4
2017-Nov-30 10:10N 49°49' W 003°26'214.6
2017-Nov-30 10:00N 49°50' W 003°24'713.9
2017-Nov-30 09:31N 49°54' W 003°15'714.4
2017-Nov-30 09:00N 49°57' W 003°04'816.6
2017-Nov-30 08:30N 49°59' W 002°52'816.7
2017-Nov-30 08:00N 50°02' W 002°40'816.2
2017-Nov-30 07:29N 50°05' W 002°28'1215.4
2017-Nov-30 06:42N 50°08' W 002°09'414.7
2017-Nov-30 06:25N 50°09' W 002°03'614.3
2017-Nov-30 06:00N 50°10' W 001°54'714.0
2017-Nov-30 05:30N 50°12' W 001°43'713.7
2017-Nov-30 05:00N 50°14' W 001°33'713.5
2017-Nov-30 04:30N 50°16' W 001°23'813.6
2017-Nov-30 03:54N 50°18' W 001°10'2615.1
2017-Nov-30 02:09N 50°25' W 000°30'216.3
2017-Nov-30 02:00N 50°25' W 000°27'816.6
2017-Nov-30 01:30N 50°27' W 000°14'816.8
2017-Nov-30 01:00N 50°30' W 000°02'917.1
2017-Nov-30 00:30N 50°32' E 000°11'917.3
2017-Nov-30 00:00N 50°34' E 000°25'917.1
2017-Nov-29 23:30N 50°37' E 000°37'917.0
2017-Nov-29 23:00N 50°42' E 000°48'816.6
2017-Nov-29 22:30N 50°47' E 000°58'816.0
2017-Nov-29 22:00N 50°53' E 001°08'815.5
2017-Nov-29 21:30N 50°58' E 001°17'714.7
2017-Nov-29 21:00N 51°03' E 001°25'714.7
2017-Nov-29 20:30N 51°08' E 001°34'714.8
2017-Nov-29 20:00N 51°12' E 001°44'815.2
2017-Nov-29 19:30N 51°19' E 001°48'816.1
2017-Nov-29 19:00N 51°27' E 001°51'816.5
2017-Nov-29 18:31N 51°35' E 001°47'917.1
2017-Nov-29 18:00N 51°43' E 001°45'714.9
2017-Nov-29 17:30N 51°50' E 001°40'4 8.0
2017-Nov-29 17:01N 51°49' E 001°34'714.4
2017-Nov-29 16:31N 51°42' E 001°28'714.8
2017-Nov-29 16:01N 51°37' E 001°20'714.1
2017-Nov-29 15:30N 51°33' E 001°10'815.3
2017-Nov-29 15:00N 51°29' E 000°60'2 0.1
2017-Nov-28 08:15N 51°29' E 000°56'415.6
2017-Nov-28 08:00N 51°30' E 001°02'816.6
2017-Nov-28 07:30N 51°34' E 001°14'917.9
2017-Nov-28 07:00N 51°40' E 001°25'917.2
2017-Nov-28 06:31N 51°47' E 001°32'713.7
2017-Nov-28 06:01N 51°51' E 001°41'510.4
2017-Nov-28 05:30N 51°48' E 001°48'1514.7
2017-Nov-28 04:30N 51°34' E 001°50'612.9
2017-Nov-28 04:00N 51°28' E 001°55'714.5
2017-Nov-28 03:30N 51°25' E 002°05'714.8
2017-Nov-28 03:00N 51°21' E 002°16'815.7
2017-Nov-28 02:31N 51°22' E 002°28'815.6
2017-Nov-28 02:00N 51°23' E 002°40'712.6
2017-Nov-28 01:29N 51°25' E 002°50'918.6
2017-Nov-28 01:00N 51°24' E 003°04'918.4
2017-Nov-28 00:30N 51°24' E 003°19'917.8
2017-Nov-28 00:00N 51°26' E 003°33'3 6.7
2017-Nov-27 23:30N 51°26' E 003°39'714.9
2017-Nov-27 23:01N 51°21' E 003°47'714.7
2017-Nov-27 22:31N 51°25' E 003°58'5 9.6
2017-Nov-27 22:00N 51°22' E 004°04'611.6
2017-Nov-27 21:31N 51°22' E 004°13'2 4.5
2017-Nov-27 21:00N 51°20' E 004°16'0 0.2
2017-Nov-27 20:30N 51°20' E 004°16'0 0.0
2017-Nov-27 19:58N 51°20' E 004°16'0 0.0
2017-Nov-27 19:31N 51°20' E 004°16'0 0.0
2017-Nov-27 19:00N 51°20' E 004°16'0 0.0
2017-Nov-27 18:29N 51°20' E 004°16'0 0.0
2017-Nov-27 17:59N 51°20' E 004°16'0 0.0
2017-Nov-27 17:31N 51°20' E 004°16'0 0.0
2017-Nov-27 17:01N 51°20' E 004°16'0 0.0
2017-Nov-27 16:30N 51°20' E 004°16'0 0.0
2017-Nov-27 16:01N 51°20' E 004°16'0 0.0
2017-Nov-27 15:30N 51°20' E 004°16'0 0.0
2017-Nov-27 15:00N 51°20' E 004°16'0 0.0
2017-Nov-27 14:30N 51°20' E 004°16'0 0.0
2017-Nov-27 14:01N 51°20' E 004°16'0 0.0
2017-Nov-27 13:30N 51°20' E 004°16'0 0.0
2017-Nov-27 13:01N 51°20' E 004°16'0 0.0
2017-Nov-27 12:31N 51°20' E 004°16'0 0.0
2017-Nov-27 12:01N 51°20' E 004°16'0 0.0
2017-Nov-27 11:30N 51°20' E 004°16'0 0.0
2017-Nov-27 11:01N 51°20' E 004°16'0 0.0
2017-Nov-27 10:31N 51°20' E 004°16'0 0.0
2017-Nov-27 09:57N 51°20' E 004°16'0 0.0
2017-Nov-27 09:31N 51°20' E 004°16'0 0.0
2017-Nov-27 09:00N 51°20' E 004°16'0 0.0
2017-Nov-27 08:30N 51°20' E 004°16'0 0.0
2017-Nov-27 08:00N 51°20' E 004°16'0 0.0
2017-Nov-27 07:30N 51°20' E 004°16'0 0.0
2017-Nov-27 07:00N 51°20' E 004°16'0 0.0
2017-Nov-27 06:27N 51°20' E 004°16'0 0.0
2017-Nov-27 06:01N 51°20' E 004°16'0 0.0
2017-Nov-27 05:30N 51°20' E 004°16'0 0.0
2017-Nov-27 05:01N 51°20' E 004°16'0 0.0
2017-Nov-27 04:31N 51°20' E 004°16'0 0.0
2017-Nov-27 04:00N 51°20' E 004°16'0 0.0
2017-Nov-27 03:31N 51°20' E 004°16'  
Track history (hours):
 
Tides and Currents Weather Stations Pressure Air Temp Water Temp Dewpoint Dewpoint Depression Visibility Wind Speed Wind Dir Waves Ship Positions

CCNI Arauco

Last reported at 2017-Dec-07 03:11 UTC. Time now 2017-Dec-17 11:51 UTC.
Position N 36°28' E 014°45'.
Warning: this ship's position is 10 days out of date.

Length 300 m; draft 12.5 m.

Type: Ship (hazmat cat A). MMSI: 636016609.

Date/timePositionNaut miles runAvg speedWind from/ knotsBaromVisibWave heightAir tempDewpointWater temp
2017-Dec-07 03:11N 36°28' E 014°45'315.5
2017-Dec-07 03:00N 36°29' E 014°42'815.5
2017-Dec-07 02:30N 36°31' E 014°32'815.4
2017-Dec-07 02:00N 36°33' E 014°23'915.3
2017-Dec-07 01:27N 36°35' E 014°13'715.1
2017-Dec-07 01:00N 36°38' E 014°05'815.1
2017-Dec-07 00:29N 36°40' E 013°56'  
2017-Dec-04 10:30N 35°59' W 005°14'815.1
2017-Dec-04 10:00N 35°58' W 005°23'269 7.4
2017-Dec-02 21:30N 38°28' W 010°03'1020.6
2017-Dec-02 21:00N 38°39' W 010°05'1320.8
2017-Dec-02 20:23N 38°51' W 010°06'820.8
2017-Dec-02 20:00N 38°59' W 010°06'1121.1
2017-Dec-02 19:30N 39°10' W 010°05'  
2017-Nov-30 11:29N 49°39' W 003°51'1113.9
2017-Nov-30 10:42N 49°44' W 003°36'814.4
2017-Nov-30 10:10N 49°49' W 003°26'214.6
2017-Nov-30 10:00N 49°50' W 003°24'713.9
2017-Nov-30 09:31N 49°54' W 003°15'714.4
2017-Nov-30 09:00N 49°57' W 003°04'816.6
2017-Nov-30 08:30N 49°59' W 002°52'816.7
2017-Nov-30 08:00N 50°02' W 002°40'816.2
2017-Nov-30 07:29N 50°05' W 002°28'1215.4
2017-Nov-30 06:42N 50°08' W 002°09'414.7
2017-Nov-30 06:25N 50°09' W 002°03'614.3
2017-Nov-30 06:00N 50°10' W 001°54'714.0
2017-Nov-30 05:30N 50°12' W 001°43'713.7
2017-Nov-30 05:00N 50°14' W 001°33'713.5
2017-Nov-30 04:30N 50°16' W 001°23'813.6
2017-Nov-30 03:54N 50°18' W 001°10'2615.1
2017-Nov-30 02:09N 50°25' W 000°30'216.3
2017-Nov-30 02:00N 50°25' W 000°27'816.6
2017-Nov-30 01:30N 50°27' W 000°14'816.8
2017-Nov-30 01:00N 50°30' W 000°02'917.1
2017-Nov-30 00:30N 50°32' E 000°11'917.3
2017-Nov-30 00:00N 50°34' E 000°25'917.1
2017-Nov-29 23:30N 50°37' E 000°37'917.0
2017-Nov-29 23:00N 50°42' E 000°48'816.6
2017-Nov-29 22:30N 50°47' E 000°58'816.0
2017-Nov-29 22:00N 50°53' E 001°08'815.5
2017-Nov-29 21:30N 50°58' E 001°17'714.7
2017-Nov-29 21:00N 51°03' E 001°25'714.7
2017-Nov-29 20:30N 51°08' E 001°34'714.8
2017-Nov-29 20:00N 51°12' E 001°44'815.2
2017-Nov-29 19:30N 51°19' E 001°48'816.1
2017-Nov-29 19:00N 51°27' E 001°51'816.5
2017-Nov-29 18:31N 51°35' E 001°47'917.1
2017-Nov-29 18:00N 51°43' E 001°45'714.9
2017-Nov-29 17:30N 51°50' E 001°40'4 8.0
2017-Nov-29 17:01N 51°49' E 001°34'714.4
2017-Nov-29 16:31N 51°42' E 001°28'714.8
2017-Nov-29 16:01N 51°37' E 001°20'714.1
2017-Nov-29 15:30N 51°33' E 001°10'815.3
2017-Nov-29 15:00N 51°29' E 000°60'2 0.1
2017-Nov-28 08:15N 51°29' E 000°56'415.6
2017-Nov-28 08:00N 51°30' E 001°02'816.6
2017-Nov-28 07:30N 51°34' E 001°14'917.9
2017-Nov-28 07:00N 51°40' E 001°25'917.2
2017-Nov-28 06:31N 51°47' E 001°32'713.7
2017-Nov-28 06:01N 51°51' E 001°41'510.4
2017-Nov-28 05:30N 51°48' E 001°48'1514.7
2017-Nov-28 04:30N 51°34' E 001°50'612.9
2017-Nov-28 04:00N 51°28' E 001°55'714.5
2017-Nov-28 03:30N 51°25' E 002°05'714.8
2017-Nov-28 03:00N 51°21' E 002°16'815.7
2017-Nov-28 02:31N 51°22' E 002°28'815.6
2017-Nov-28 02:00N 51°23' E 002°40'712.6
2017-Nov-28 01:29N 51°25' E 002°50'918.6
2017-Nov-28 01:00N 51°24' E 003°04'918.4
2017-Nov-28 00:30N 51°24' E 003°19'917.8
2017-Nov-28 00:00N 51°26' E 003°33'3 6.7
2017-Nov-27 23:30N 51°26' E 003°39'714.9
2017-Nov-27 23:01N 51°21' E 003°47'714.7
2017-Nov-27 22:31N 51°25' E 003°58'5 9.6
2017-Nov-27 22:00N 51°22' E 004°04'611.6
2017-Nov-27 21:31N 51°22' E 004°13'2 4.5
2017-Nov-27 21:00N 51°20' E 004°16'0 0.2
2017-Nov-27 20:30N 51°20' E 004°16'0 0.0
2017-Nov-27 19:58N 51°20' E 004°16'0 0.0
2017-Nov-27 19:31N 51°20' E 004°16'0 0.0
2017-Nov-27 19:00N 51°20' E 004°16'0 0.0
2017-Nov-27 18:29N 51°20' E 004°16'0 0.0
2017-Nov-27 17:59N 51°20' E 004°16'0 0.0
2017-Nov-27 17:31N 51°20' E 004°16'0 0.0
2017-Nov-27 17:01N 51°20' E 004°16'0 0.0
2017-Nov-27 16:30N 51°20' E 004°16'0 0.0
2017-Nov-27 16:01N 51°20' E 004°16'0 0.0
2017-Nov-27 15:30N 51°20' E 004°16'0 0.0
2017-Nov-27 15:00N 51°20' E 004°16'0 0.0
2017-Nov-27 14:30N 51°20' E 004°16'0 0.0
2017-Nov-27 14:01N 51°20' E 004°16'0 0.0
2017-Nov-27 13:30N 51°20' E 004°16'0 0.0
2017-Nov-27 13:01N 51°20' E 004°16'0 0.0
2017-Nov-27 12:31N 51°20' E 004°16'0 0.0
2017-Nov-27 12:01N 51°20' E 004°16'0 0.0
2017-Nov-27 11:30N 51°20' E 004°16'0 0.0
2017-Nov-27 11:01N 51°20' E 004°16'0 0.0
2017-Nov-27 10:31N 51°20' E 004°16'0 0.0
2017-Nov-27 09:57N 51°20' E 004°16'0 0.0
2017-Nov-27 09:31N 51°20' E 004°16'0 0.0
2017-Nov-27 09:00N 51°20' E 004°16'0 0.0
2017-Nov-27 08:30N 51°20' E 004°16'0 0.0
2017-Nov-27 08:00N 51°20' E 004°16'0 0.0
2017-Nov-27 07:30N 51°20' E 004°16'0 0.0
2017-Nov-27 07:00N 51°20' E 004°16'0 0.0
2017-Nov-27 06:27N 51°20' E 004°16'0 0.0
2017-Nov-27 06:01N 51°20' E 004°16'0 0.0
2017-Nov-27 05:30N 51°20' E 004°16'0 0.0
2017-Nov-27 05:01N 51°20' E 004°16'0 0.0
2017-Nov-27 04:31N 51°20' E 004°16'0 0.0
2017-Nov-27 04:00N 51°20' E 004°16'0 0.0
2017-Nov-27 03:31N 51°20' E 004°16'  

Dump ship's entire track history